Time;durP1;ratioP1;P1;durP2;ratioP2;P2;SDS_P1;SDS_P2;PMS_P1;PMS_P2;Temp;Humidity;BMP_temperature;BMP_pressure;BME280_temperature;BME280_humidity;BME280_pressure;Samples;Min_cycle;Max_cycle;Signal;HPM_P1;HPM_P2
2021/06/25 00:01:08;;;;;;;5.47;4.95;;;;;;;-139.48;100.00;61774.03;5084895;28;20127;-63
2021/06/25 00:03:52;;;;;;;8.98;5.22;;;;;;;-139.48;100.00;61774.03;5098779;28;20050;-63
2021/06/25 00:06:36;;;;;;;6.65;4.88;;;;;;;-139.48;100.00;61774.03;5099113;28;20100;-63
2021/06/25 00:09:20;;;;;;;6.60;4.80;;;;;;;-139.48;100.00;61774.03;5099022;28;20058;-63
2021/06/25 00:12:06;;;;;;;6.32;5.22;;;;;;;-139.48;100.00;61774.03;5114269;28;20097;-65
2021/06/25 00:14:50;;;;;;;5.82;5.10;;;;;;;-139.48;100.00;61774.03;5098928;28;20050;-63
2021/06/25 00:17:35;;;;;;;8.23;5.72;;;;;;;-139.48;100.00;61774.03;5084566;28;20089;-63
2021/06/25 00:20:19;;;;;;;7.32;5.30;;;;;;;-139.48;100.00;61774.03;5098657;28;20051;-63
2021/06/25 00:23:03;;;;;;;6.88;5.43;;;;;;;-139.48;100.00;61774.03;5099189;28;20121;-63
2021/06/25 00:25:47;;;;;;;8.48;6.00;;;;;;;-139.48;100.00;61774.03;5113897;28;20047;-64
2021/06/25 00:28:31;;;;;;;10.25;7.13;;;;;;;-139.48;100.00;61774.03;5098466;28;20046;-63
2021/06/25 00:31:15;;;;;;;9.25;6.00;;;;;;;-139.48;100.00;61774.03;5113691;28;20104;-63
2021/06/25 00:33:59;;;;;;;8.20;6.30;;;;;;;-139.48;100.00;61774.03;5098869;28;20110;-63
2021/06/25 00:36:43;;;;;;;11.48;6.88;;;;;;;-139.48;100.00;61774.03;5098342;28;20104;-63
2021/06/25 00:39:27;;;;;;;9.38;6.90;;;;;;;-139.48;100.00;61774.03;5098544;28;20188;-63
2021/06/25 00:42:11;;;;;;;10.15;6.93;;;;;;;-139.48;100.00;61774.03;5098310;28;20430;-63
2021/06/25 00:44:55;;;;;;;9.73;7.30;;;;;;;-139.48;100.00;61774.03;5083963;28;20055;-61
2021/06/25 00:47:42;;;;;;;11.52;8.48;;;;;;;-139.48;100.00;61774.03;5113912;28;20104;-64
2021/06/25 00:50:31;;;;;;;8.98;8.07;;;;;;;-139.48;100.00;61774.03;5098247;28;20112;-63
2021/06/25 00:53:15;;;;;;;7.80;7.05;;;;;;;-139.48;100.00;61774.03;5098133;28;20089;-63
2021/06/25 00:55:59;;;;;;;10.20;8.13;;;;;;;-139.48;100.00;61774.03;5113784;28;20576;-63
2021/06/25 00:58:44;;;;;;;11.38;8.38;;;;;;;-139.48;100.00;61774.03;5086854;28;20412;-63
2021/06/25 01:01:28;;;;;;;10.02;8.93;;;;;;;-139.48;100.00;61774.03;5102334;28;20047;-63
2021/06/25 01:04:13;;;;;;;12.00;8.48;;;;;;;-139.48;100.00;61774.03;5102551;28;20047;-63
2021/06/25 01:06:57;;;;;;;8.63;7.50;;;;;;;-139.48;100.00;61774.03;5117638;28;20046;-63
2021/06/25 01:09:42;;;;;;;8.55;7.60;;;;;;;-139.48;100.00;61774.03;5102385;28;20074;-63
2021/06/25 01:12:27;;;;;;;15.27;8.80;;;;;;;-139.48;100.00;61774.03;5088107;28;20561;-64
2021/06/25 01:15:12;;;;;;;10.02;7.55;;;;;;;-139.48;100.00;61774.03;5102274;28;20127;-63
2021/06/25 01:17:56;;;;;;;9.57;8.45;;;;;;;-139.48;100.00;61774.03;5102013;28;20443;-63
2021/06/25 01:20:40;;;;;;;10.52;6.72;;;;;;;-139.48;100.00;61774.03;5117514;28;20412;-65
2021/06/25 01:23:26;;;;;;;10.27;7.97;;;;;;;-139.48;100.00;61774.03;5087905;28;20082;-63
2021/06/25 01:26:10;;;;;;;9.02;7.03;;;;;;;-139.48;100.00;61774.03;5102014;28;20465;-63
2021/06/25 01:28:54;;;;;;;13.38;7.88;;;;;;;-139.48;100.00;61774.03;5101815;28;20408;-62
2021/06/25 01:31:38;;;;;;;8.70;7.50;;;;;;;-139.48;100.00;61774.03;5087458;28;20473;-63
2021/06/25 01:34:22;;;;;;;13.02;8.50;;;;;;;-139.48;100.00;61774.03;5117409;28;20081;-61
2021/06/25 01:37:05;;;;;;;10.23;7.97;;;;;;;-139.48;100.00;61774.03;5087552;28;20396;-63
2021/06/25 01:39:50;;;;;;;10.50;7.85;;;;;;;-139.48;100.00;61774.03;5087333;28;20037;-63
2021/06/25 01:42:36;;;;;;;14.52;8.68;;;;;;;-139.48;100.00;61774.03;5103535;28;20047;-66
2021/06/25 01:45:22;;;;;;;13.40;9.05;;;;;;;-139.48;100.00;61774.03;5101483;28;20427;-66
2021/06/25 01:48:07;;;;;;;11.18;7.97;;;;;;;-139.48;100.00;61774.03;5101727;28;20047;-66
2021/06/25 01:50:51;;;;;;;11.23;7.95;;;;;;;-139.48;100.00;61774.03;5101482;28;20104;-64
2021/06/25 01:53:35;;;;;;;8.27;7.13;;;;;;;-139.48;100.00;61774.03;5101630;28;20519;-66
2021/06/25 01:56:19;;;;;;;11.15;7.75;;;;;;;-139.48;100.00;61774.03;5101590;28;20050;-66
2021/06/25 01:59:04;;;;;;;11.85;7.65;;;;;;;-139.48;100.00;61774.03;5086856;28;20080;-65
2021/06/25 02:01:48;;;;;;;11.13;7.78;;;;;;;-139.48;100.00;61774.03;5087061;28;20058;-66
2021/06/25 02:04:32;;;;;;;11.63;7.82;;;;;;;-139.48;100.00;61774.03;5101427;28;20515;-66
2021/06/25 02:07:16;;;;;;;11.60;8.13;;;;;;;-139.48;100.00;61774.03;5116510;28;20042;-64
2021/06/25 02:10:00;;;;;;;10.52;7.47;;;;;;;-139.48;100.00;61774.03;5099699;28;20141;-65
2021/06/25 02:12:44;;;;;;;10.73;6.90;;;;;;;-139.48;100.00;61774.03;5101486;28;20397;-67
2021/06/25 02:15:28;;;;;;;13.75;7.30;;;;;;;-139.48;100.00;61774.03;5116357;28;20074;-65
2021/06/25 02:18:12;;;;;;;11.15;7.43;;;;;;;-139.48;100.00;61774.03;5100881;28;20050;-67
2021/06/25 02:20:56;;;;;;;16.38;8.27;;;;;;;-139.48;100.00;61774.03;5086597;28;20050;-65
2021/06/25 02:23:40;;;;;;;10.02;8.25;;;;;;;-139.48;100.00;61774.03;5087121;28;20046;-65
2021/06/25 02:26:24;;;;;;;12.68;8.05;;;;;;;-139.48;100.00;61774.03;5116137;28;20561;-66
2021/06/25 02:29:08;;;;;;;10.93;8.73;;;;;;;-139.48;100.00;61774.03;5100788;28;20051;-66
2021/06/25 02:31:53;;;;;;;11.27;8.43;;;;;;;-139.48;100.00;61774.03;5100753;28;20499;-66
2021/06/25 02:34:37;;;;;;;15.10;8.63;;;;;;;-139.48;100.00;61774.03;5086684;28;20092;-66
2021/06/25 02:37:21;;;;;;;10.77;8.57;;;;;;;-139.48;100.00;61774.03;5100520;28;20050;-65
2021/06/25 02:40:06;;;;;;;;;;;;;;;-139.48;100.00;61774.03;5101272;28;20046;-66
2021/06/25 02:42:50;;;;;;;;;;;;;;;-139.48;100.00;61774.03;5116534;28;19917;-66
2021/06/25 02:45:34;;;;;;;15.65;11.77;;;;;;;-139.48;100.00;61774.03;5100395;28;20000;-66
2021/06/25 02:48:17;;;;;;;17.50;11.93;;;;;;;-139.48;100.00;61774.03;5100310;28;20101;-68
2021/06/25 02:51:01;;;;;;;12.77;10.65;;;;;;;-139.48;100.00;61774.03;5115828;28;20050;-66
2021/06/25 02:53:45;;;;;;;17.60;11.38;;;;;;;-139.48;100.00;61774.03;5115850;28;20042;-64
2021/06/25 02:56:29;;;;;;;17.52;12.30;;;;;;;-139.48;100.00;61774.03;5100391;28;20051;-66
2021/06/25 02:59:13;;;;;;;15.85;12.68;;;;;;;-139.48;100.00;61774.03;5115514;28;20051;-65
2021/06/25 03:01:57;;;;;;;18.10;12.68;;;;;;;-139.48;100.00;61774.03;5085629;28;20511;-67
2021/06/25 03:04:41;;;;;;;18.75;13.18;;;;;;;-139.48;100.00;61774.03;5115405;28;20050;-64
2021/06/25 03:07:25;;;;;;;16.67;12.38;;;;;;;-139.48;100.00;61774.03;5100213;28;20152;-66
2021/06/25 03:10:09;;;;;;;20.23;13.65;;;;;;;-139.48;100.00;61774.03;5085667;28;20169;-66
2021/06/25 03:12:53;;;;;;;18.35;13.45;;;;;;;-139.48;100.00;61774.03;5100033;28;20122;-66
2021/06/25 03:15:37;;;;;;;18.98;14.75;;;;;;;-139.48;100.00;61774.03;5115474;28;20050;-66
2021/06/25 03:18:21;;;;;;;21.25;14.55;;;;;;;-139.48;100.00;61774.03;5115434;28;20050;-68
2021/06/25 03:21:05;;;;;;;23.00;14.77;;;;;;;-139.48;100.00;61774.03;5115041;28;20105;-66
2021/06/25 03:23:49;;;;;;;23.50;15.65;;;;;;;-139.48;100.00;61774.03;5115290;28;20050;-65
2021/06/25 03:26:33;;;;;;;24.75;15.98;;;;;;;-139.48;100.00;61774.03;5115246;28;20103;-65
2021/06/25 03:29:17;;;;;;;24.38;16.95;;;;;;;-139.48;100.00;61774.03;5115069;28;20065;-65
2021/06/25 03:32:02;;;;;;;24.95;16.63;;;;;;;-139.48;100.00;61774.03;5099615;28;20046;-65
2021/06/25 03:34:46;;;;;;;24.45;16.58;;;;;;;-139.48;100.00;61774.03;5099363;28;20062;-63
2021/06/25 03:37:29;;;;;;;25.48;17.73;;;;;;;-139.48;100.00;61774.03;5099542;28;20100;-66
2021/06/25 03:40:14;;;;;;;25.67;16.05;;;;;;;-139.48;100.00;61774.03;5099418;28;20127;-65
2021/06/25 03:42:59;;;;;;;26.73;17.30;;;;;;;-139.48;100.00;61774.03;5114662;28;20126;-65
2021/06/25 03:45:43;;;;;;;28.15;18.75;;;;;;;-139.48;100.00;61774.03;5114618;28;20050;-65
2021/06/25 03:48:26;;;;;;;27.95;17.52;;;;;;;-139.48;100.00;61774.03;5099112;28;20120;-65
2021/06/25 03:51:10;;;;;;;27.45;16.90;;;;;;;-139.48;100.00;61774.03;5099078;28;20503;-65
2021/06/25 03:53:54;;;;;;;31.17;18.55;;;;;;;-139.48;100.00;61774.03;5084741;28;20511;-65
2021/06/25 03:56:38;;;;;;;27.05;17.48;;;;;;;-139.48;100.00;61774.03;5114616;28;20261;-65
2021/06/25 03:59:22;;;;;;;27.45;17.73;;;;;;;-139.48;100.00;61774.03;5099196;28;20549;-65
2021/06/25 04:02:10;;;;;;;35.10;19.55;;;;;;;-139.48;100.00;61774.03;5099090;28;20088;-65
2021/06/25 04:04:54;;;;;;;28.15;18.40;;;;;;;-139.48;100.00;61774.03;5099349;28;20042;-65
2021/06/25 04:07:39;;;;;;;31.63;19.10;;;;;;;-139.48;100.00;61774.03;5098848;28;20519;-65
2021/06/25 04:10:23;;;;;;;33.42;18.92;;;;;;;-139.48;100.00;61774.03;5114283;28;20197;-64
2021/06/25 04:13:06;;;;;;;30.42;18.60;;;;;;;-139.48;100.00;61774.03;5099011;28;20096;-63
2021/06/25 04:15:51;;;;;;;30.35;19.50;;;;;;;-139.48;100.00;61774.03;5084588;28;20124;-65
2021/06/25 04:18:35;;;;;;;32.13;19.55;;;;;;;-139.48;100.00;61774.03;5084592;28;20054;-65
2021/06/25 04:21:22;;;;;;;34.17;19.65;;;;;;;-139.48;100.00;61774.03;5098613;28;20097;-65
2021/06/25 04:24:06;;;;;;;32.88;19.58;;;;;;;-139.48;100.00;61774.03;5098481;28;20049;-65
2021/06/25 04:26:50;;;;;;;39.35;20.10;;;;;;;-139.48;100.00;61774.03;5098467;28;20053;-65
2021/06/25 04:29:34;;;;;;;31.88;19.73;;;;;;;-139.48;100.00;61774.03;5113783;28;20082;-65
2021/06/25 04:32:20;;;;;;;33.47;20.15;;;;;;;-139.48;100.00;61774.03;5113279;28;20043;-65
2021/06/25 04:35:04;;;;;;;35.33;21.25;;;;;;;-139.48;100.00;61774.03;5114074;28;20544;-65
2021/06/25 04:37:48;;;;;;;33.90;20.10;;;;;;;-139.48;100.00;61774.03;5098310;28;20448;-65
2021/06/25 04:40:34;;;;;;;35.92;19.80;;;;;;;-139.48;100.00;61774.03;5113841;28;20042;-65
2021/06/25 04:43:18;;;;;;;38.42;21.05;;;;;;;-139.48;100.00;61774.03;5084318;28;20093;-65
2021/06/25 04:46:02;;;;;;;36.67;21.23;;;;;;;-139.48;100.00;61774.03;5113885;28;20095;-65
2021/06/25 04:48:46;;;;;;;37.20;21.45;;;;;;;-139.48;100.00;61774.03;5098222;28;20085;-65
2021/06/25 04:51:30;;;;;;;40.67;22.90;;;;;;;-139.48;100.00;61774.03;5098011;28;20127;-65
2021/06/25 04:54:14;;;;;;;41.40;22.80;;;;;;;-139.48;100.00;61774.03;5098475;28;20122;-65
2021/06/25 04:56:58;;;;;;;36.58;21.15;;;;;;;-139.48;100.00;61774.03;5098393;28;20629;-65
2021/06/25 04:59:42;;;;;;;40.55;21.52;;;;;;;-139.48;100.00;61774.03;5098047;28;20050;-65
2021/06/25 05:02:25;;;;;;;;;;;;;;;-139.48;100.00;61774.03;5113893;28;20534;-65
2021/06/25 05:05:10;;;;;;;41.72;21.95;;;;;;;-139.48;100.00;61774.03;5113615;28;20421;-65
2021/06/25 05:07:54;;;;;;;40.47;22.48;;;;;;;-139.48;100.00;61774.03;5113974;28;20042;-65
2021/06/25 05:10:39;;;;;;;41.40;23.35;;;;;;;-139.48;100.00;61774.03;5098181;28;20051;-65
2021/06/25 05:13:23;;;;;;;45.15;24.17;;;;;;;-139.48;100.00;61774.03;5098184;28;20051;-65
2021/06/25 05:16:06;;;;;;;42.08;22.88;;;;;;;-139.48;100.00;61774.03;5113644;28;20099;-65
2021/06/25 05:18:50;;;;;;;48.75;24.75;;;;;;;-139.48;100.00;61774.03;5113670;28;20050;-65
2021/06/25 05:21:36;;;;;;;51.42;24.48;;;;;;;-139.48;100.00;61774.03;5113215;28;20089;-66
2021/06/25 05:24:20;;;;;;;45.28;25.27;;;;;;;-139.48;100.00;61774.03;5098107;28;20051;-65
2021/06/25 05:27:04;;;;;;;52.28;27.30;;;;;;;-139.48;100.00;61774.03;5113586;28;20545;-65
2021/06/25 05:29:48;;;;;;;52.08;26.65;;;;;;;-139.48;100.00;61774.03;5113583;28;20122;-65
2021/06/25 05:32:33;;;;;;;54.03;28.45;;;;;;;-139.48;100.00;61774.03;5113439;28;20051;-65
2021/06/25 05:35:17;;;;;;;62.88;29.33;;;;;;;-139.48;100.00;61774.03;5113207;28;20047;-65
2021/06/25 05:38:04;;;;;;;64.20;31.05;;;;;;;-139.48;100.00;61774.03;5097828;28;20521;-65
2021/06/25 05:40:49;;;;;;;67.53;31.77;;;;;;;-139.48;100.00;61774.03;5083149;28;20043;-65
2021/06/25 05:43:33;;;;;;;66.07;34.38;;;;;;;-139.48;100.00;61774.03;5098331;28;20108;-65
2021/06/25 05:46:18;;;;;;;63.97;31.85;;;;;;;-139.48;100.00;61774.03;5087592;28;20046;-64
2021/06/25 05:49:01;;;;;;;75.38;35.22;;;;;;;-139.48;100.00;61774.03;5087032;28;20050;-65
2021/06/25 05:51:45;;;;;;;72.38;35.10;;;;;;;-139.48;100.00;61774.03;5101203;28;20046;-65
2021/06/25 05:54:29;;;;;;;69.47;35.08;;;;;;;-139.48;100.00;61774.03;5117068;28;20090;-65
2021/06/25 05:57:13;;;;;;;75.70;37.25;;;;;;;-139.48;100.00;61774.03;5116878;28;20050;-65
2021/06/25 05:59:57;;;;;;;64.32;34.95;;;;;;;-139.48;100.00;61774.03;5116885;28;20100;-65
2021/06/25 06:02:41;;;;;;;73.82;37.60;;;;;;;-139.48;100.00;61774.03;5116910;28;20051;-65
2021/06/25 06:05:25;;;;;;;77.22;36.83;;;;;;;-139.48;100.00;61774.03;5116658;28;20127;-63
2021/06/25 06:08:09;;;;;;;65.68;33.08;;;;;;;-139.48;100.00;61774.03;5117040;28;20087;-65
2021/06/25 06:10:53;;;;;;;59.40;31.77;;;;;;;-139.48;100.00;61774.03;5101109;28;20065;-64
2021/06/25 06:13:37;;;;;;;75.20;36.50;;;;;;;-139.48;100.00;61774.03;5116533;28;20093;-65
2021/06/25 06:16:20;;;;;;;62.65;33.33;;;;;;;-139.48;100.00;61774.03;5116655;28;20045;-65
2021/06/25 06:19:05;;;;;;;63.90;33.15;;;;;;;-139.48;100.00;61774.03;5101064;28;20066;-65
2021/06/25 06:33:59;;;;;;;51.72;31.83;;;;;;;-139.48;100.00;61774.03;5102946;28;20104;-66
2021/06/25 06:36:44;;;;;;;49.28;29.20;;;;;;;-139.48;100.00;61774.03;5116246;28;20130;-65
2021/06/25 06:39:29;;;;;;;49.30;29.63;;;;;;;-139.48;100.00;61774.03;5100673;28;20043;-65
2021/06/25 06:42:13;;;;;;;53.58;31.38;;;;;;;-139.48;100.00;61774.03;5100434;28;20188;-65
2021/06/25 06:44:58;;;;;;;44.05;27.80;;;;;;;-139.48;100.00;61774.03;5115804;28;20042;-65
2021/06/25 06:47:42;;;;;;;43.85;28.38;;;;;;;-139.48;100.00;61774.03;5086275;28;20511;-66
2021/06/25 06:50:25;;;;;;;44.80;28.75;;;;;;;-139.48;100.00;61774.03;5115776;28;20050;-65
2021/06/25 06:53:09;;;;;;;44.65;27.90;;;;;;;-139.48;100.00;61774.03;5115902;28;20097;-65
2021/06/25 06:55:53;;;;;;;45.10;27.90;;;;;;;-139.48;100.00;61774.03;5115271;28;20077;-65
2021/06/25 06:58:39;;;;;;;47.75;28.20;;;;;;;-139.48;100.00;61774.03;5085791;28;20557;-66
2021/06/25 07:01:24;;;;;;;47.55;30.88;;;;;;;-139.48;100.00;61774.03;5085670;28;20046;-65
2021/06/25 07:04:08;;;;;;;44.75;28.45;;;;;;;-139.48;100.00;61774.03;5100254;28;20042;-66
2021/06/25 07:06:52;;;;;;;43.15;28.67;;;;;;;-139.48;100.00;61774.03;5099928;28;20082;-66
2021/06/25 07:09:36;;;;;;;36.42;25.23;;;;;;;-139.48;100.00;61774.03;5115499;28;20357;-66
2021/06/25 07:12:20;;;;;;;44.80;27.42;;;;;;;-139.48;100.00;61774.03;5085738;28;20039;-65
2021/06/25 07:15:05;;;;;;;36.03;24.83;;;;;;;-139.48;100.00;61774.03;5099755;28;20082;-65
2021/06/25 07:17:49;;;;;;;47.22;27.65;;;;;;;-139.48;100.00;61774.03;5115434;28;20050;-65
2021/06/25 07:20:33;;;;;;;42.03;26.38;;;;;;;-139.48;100.00;61774.03;5099472;28;20046;-66
2021/06/25 07:23:18;;;;;;;42.25;27.35;;;;;;;-139.48;100.00;61774.03;5100061;28;20446;-65
2021/06/25 07:26:02;;;;;;;38.35;23.05;;;;;;;-139.48;100.00;61774.03;5115172;28;20517;-64
2021/06/25 07:28:46;;;;;;;32.75;23.58;;;;;;;-139.48;100.00;61774.03;5115009;28;20565;-65
2021/06/25 07:31:30;;;;;;;34.88;23.90;;;;;;;-139.48;100.00;61774.03;5114990;28;20132;-66
2021/06/25 07:34:14;;;;;;;31.05;21.88;;;;;;;-139.48;100.00;61774.03;5099413;28;20115;-66
2021/06/25 07:36:58;;;;;;;38.40;23.98;;;;;;;-139.48;100.00;61774.03;5114963;28;20096;-66
2021/06/25 07:39:42;;;;;;;31.08;20.33;;;;;;;-139.48;100.00;61774.03;5114730;28;20046;-65
2021/06/25 07:42:26;;;;;;;28.63;19.77;;;;;;;-139.48;100.00;61774.03;5101174;28;20045;-64
2021/06/25 07:45:10;;;;;;;27.40;19.77;;;;;;;-139.48;100.00;61774.03;5114922;28;20472;-63
2021/06/25 07:47:54;;;;;;;26.08;18.52;;;;;;;-139.48;100.00;61774.03;5099500;28;20412;-63
2021/06/25 07:50:38;;;;;;;24.90;18.50;;;;;;;-139.48;100.00;61774.03;5084699;28;20126;-64
2021/06/25 07:53:22;;;;;;;23.92;16.50;;;;;;;-139.48;100.00;61774.03;5084982;28;20113;-63
2021/06/25 07:56:06;;;;;;;26.13;17.40;;;;;;;-139.48;100.00;61774.03;5084549;28;20408;-65
2021/06/25 07:58:50;;;;;;;28.35;19.08;;;;;;;-139.48;100.00;61774.03;5099272;28;20092;-63
2021/06/25 08:01:34;;;;;;;34.80;18.77;;;;;;;-139.48;100.00;61774.03;5084551;28;20078;-63
2021/06/25 08:04:18;;;;;;;26.35;17.25;;;;;;;-139.48;100.00;61774.03;5099152;28;20399;-65
2021/06/25 08:07:01;;;;;;;26.55;17.40;;;;;;;-139.48;100.00;61774.03;5098274;28;20050;-65
2021/06/25 08:09:45;;;;;;;27.67;18.90;;;;;;;-139.48;100.00;61774.03;5114106;28;20424;-65
2021/06/25 08:12:29;;;;;;;23.70;17.27;;;;;;;-139.48;100.00;61774.03;5114411;28;20082;-65
2021/06/25 08:15:13;;;;;;;24.38;18.15;;;;;;;-139.48;100.00;61774.03;5084532;28;20439;-65
2021/06/25 08:17:57;;;;;;;22.67;18.08;;;;;;;-139.48;100.00;61774.03;5084843;28;20078;-63
2021/06/25 08:20:41;;;;;;;26.90;18.65;;;;;;;-139.48;100.00;61774.03;5098702;28;20050;-65
2021/06/25 08:23:24;;;;;;;30.38;19.33;;;;;;;-139.48;100.00;61774.03;5098721;28;20153;-63
2021/06/25 08:26:08;;;;;;;29.80;19.58;;;;;;;-139.48;100.00;61774.03;5098786;28;20408;-65
2021/06/25 08:28:53;;;;;;;25.90;19.13;;;;;;;-139.48;100.00;61774.03;5113718;28;20050;-64
2021/06/25 08:31:38;;;;;;;31.23;21.05;;;;;;;-139.48;100.00;61774.03;5084332;28;20109;-65
2021/06/25 08:34:21;;;;;;;33.17;21.00;;;;;;;-139.48;100.00;61774.03;5098514;28;20507;-64
2021/06/25 08:37:05;;;;;;;34.00;22.40;;;;;;;-139.48;100.00;61774.03;5114060;28;20047;-65
2021/06/25 08:39:49;;;;;;;33.75;22.52;;;;;;;-139.48;100.00;61774.03;5113690;28;20113;-65
2021/06/25 08:42:36;;;;;;;28.30;19.42;;;;;;;-139.48;100.00;61774.03;5113676;28;20124;-66
2021/06/25 08:45:21;;;;;;;26.75;18.27;;;;;;;-139.48;100.00;61774.03;5113627;28;20173;-65
2021/06/25 08:48:07;;;;;;;27.75;19.08;;;;;;;-139.48;100.00;61774.03;5113747;28;20066;-66
2021/06/25 08:50:53;;;;;;;25.95;18.70;;;;;;;-139.48;100.00;61774.03;5098366;28;20122;-64
2021/06/25 08:53:37;;;;;;;22.85;16.98;;;;;;;-139.48;100.00;61774.03;5098738;28;20458;-65
2021/06/25 08:56:20;;;;;;;23.88;16.95;;;;;;;-139.48;100.00;61774.03;5098515;28;20046;-65
2021/06/25 08:59:04;;;;;;;27.20;16.92;;;;;;;-139.48;100.00;61774.03;5114305;28;20101;-66
2021/06/25 09:01:49;;;;;;;23.00;16.13;;;;;;;-139.48;100.00;61774.03;5113667;28;20043;-63
2021/06/25 09:04:35;;;;;;;23.58;16.67;;;;;;;-139.48;100.00;61774.03;5098286;28;20100;-63
2021/06/25 09:07:19;;;;;;;25.50;16.98;;;;;;;-139.48;100.00;61774.03;5098283;28;20054;-63
2021/06/25 09:10:03;;;;;;;20.65;15.65;;;;;;;-139.48;100.00;61774.03;5098212;28;20144;-65
2021/06/25 09:13:11;;;;;;;21.63;16.15;;;;;;;-139.48;100.00;61774.03;5098278;28;20094;-63
2021/06/25 09:15:55;;;;;;;24.63;16.80;;;;;;;-139.48;100.00;61774.03;5113646;28;20066;-63
2021/06/25 09:18:57;;;;;;;25.00;17.58;;;;;;;-139.48;100.00;61774.03;5098686;28;20058;-63
2021/06/25 09:21:44;;;;;;;33.95;22.50;;;;;;;-139.48;100.00;61774.03;5117651;28;20054;-63
2021/06/25 09:24:28;;;;;;;30.27;22.05;;;;;;;-139.48;100.00;61774.03;5117389;28;20066;-63
2021/06/25 09:27:16;;;;;;;22.42;16.05;;;;;;;-139.48;100.00;61774.03;5102210;28;20042;-63
2021/06/25 09:30:09;;;;;;;21.83;15.70;;;;;;;-139.48;100.00;61774.03;5102089;28;20051;-63
2021/06/25 09:32:53;;;;;;;20.83;14.57;;;;;;;-139.48;100.00;61774.03;5102116;28;20062;-64
2021/06/25 09:35:37;;;;;;;15.18;12.18;;;;;;;-139.48;100.00;61774.03;5101707;28;20177;-63
2021/06/25 09:38:39;;;;;;;21.55;13.82;;;;;;;-139.48;100.00;61774.03;5102019;28;20457;-63
2021/06/25 09:41:24;;;;;;;22.75;15.48;;;;;;;-139.48;100.00;61774.03;5101879;28;20046;-63
2021/06/25 09:44:10;;;;;;;25.10;17.70;;;;;;;-139.48;100.00;61774.03;5101690;28;20415;-63
2021/06/25 09:46:55;;;;;;;21.17;17.63;;;;;;;-139.48;100.00;61774.03;5101596;28;20557;-63
2021/06/25 09:49:40;;;;;;;25.42;19.10;;;;;;;-139.48;100.00;61774.03;5117245;28;20109;-63
2021/06/25 09:52:51;;;;;;;24.42;20.75;;;;;;;-139.48;100.00;61774.03;5101769;28;20075;-63
2021/06/25 09:58:37;;;;;;;28.10;21.20;;;;;;;-139.48;100.00;61774.03;5103369;28;20042;-66
2021/06/25 10:01:25;;;;;;;29.73;22.42;;;;;;;-139.48;100.00;61774.03;5101932;28;20149;-63
2021/06/25 10:04:08;;;;;;;31.27;22.33;;;;;;;-139.48;100.00;61774.03;5086935;28;20093;-66
2021/06/25 10:07:11;;;;;;;29.30;21.52;;;;;;;-139.48;100.00;61774.03;5087018;28;20055;-65
2021/06/25 10:10:10;;;;;;;27.13;20.75;;;;;;;-139.48;100.00;61774.03;5116673;28;20168;-65
2021/06/25 10:12:54;;;;;;;29.30;22.27;;;;;;;-139.48;100.00;61774.03;5102301;28;20086;-65
2021/06/25 10:15:38;;;;;;;31.45;21.67;;;;;;;-139.48;100.00;61774.03;5101348;28;20050;-65
2021/06/25 10:18:22;;;;;;;31.02;22.75;;;;;;;-139.48;100.00;61774.03;5101177;28;20047;-65
2021/06/25 10:21:09;;;;;;;30.92;21.73;;;;;;;-139.48;100.00;61774.03;5100899;28;20051;-65
2021/06/25 10:24:02;;;;;;;29.27;22.10;;;;;;;-139.48;100.00;61774.03;5116588;28;20137;-65
2021/06/25 10:26:46;;;;;;;32.30;23.00;;;;;;;-139.48;100.00;61774.03;5100998;28;20046;-65
2021/06/25 10:29:34;;;;;;;29.17;22.75;;;;;;;-139.48;100.00;61774.03;5086627;28;20404;-64
2021/06/25 10:32:19;;;;;;;33.05;23.33;;;;;;;-139.48;100.00;61774.03;5100832;28;20065;-65
2021/06/25 10:35:09;;;;;;;31.38;20.63;;;;;;;-139.48;100.00;61774.03;5116352;28;20046;-65
2021/06/25 10:37:53;;;;;;;32.95;22.83;;;;;;;-139.48;100.00;61774.03;5100617;28;20078;-65
2021/06/25 10:40:38;;;;;;;26.17;18.25;;;;;;;-139.48;100.00;61774.03;5116343;28;20043;-65
2021/06/25 10:43:54;;;;;;;31.38;23.13;;;;;;;-139.48;100.00;61774.03;5086492;28;20078;-65
2021/06/25 10:46:38;;;;;;;24.05;19.52;;;;;;;-139.48;100.00;61774.03;5086130;28;20082;-64
2021/06/25 10:49:23;;;;;;;27.33;21.17;;;;;;;-139.48;100.00;61774.03;5116043;28;20136;-64
2021/06/25 10:52:10;;;;;;;27.85;21.02;;;;;;;-139.48;100.00;61774.03;5085857;28;20128;-65
2021/06/25 10:55:17;;;;;;;24.65;19.13;;;;;;;-139.48;100.00;61774.03;5115898;28;20073;-64
2021/06/25 10:58:01;;;;;;;28.80;19.17;;;;;;;-139.48;100.00;61774.03;5100987;28;20124;-65
2021/06/25 11:00:53;;;;;;;27.08;18.88;;;;;;;-139.48;100.00;61774.03;5115537;28;20042;-64
2021/06/25 11:03:43;;;;;;;32.92;23.50;;;;;;;-139.48;100.00;61774.03;5115725;28;20115;-64
2021/06/25 11:06:33;;;;;;;41.13;26.83;;;;;;;-139.48;100.00;61774.03;5115675;28;20051;-64
2021/06/25 11:09:17;;;;;;;34.20;24.77;;;;;;;-139.48;100.00;61774.03;5115664;28;20065;-63
2021/06/25 11:12:28;;;;;;;40.83;27.98;;;;;;;-139.48;100.00;61774.03;5115435;28;20046;-60
2021/06/25 11:15:11;;;;;;;39.05;27.33;;;;;;;-139.48;100.00;61774.03;5115260;28;20072;-63
2021/06/25 11:17:59;;;;;;;42.85;26.73;;;;;;;-139.48;100.00;61774.03;5115426;28;20167;-62
2021/06/25 11:20:55;;;;;;;45.28;29.10;;;;;;;-139.48;100.00;61774.03;5099613;28;20046;-63
2021/06/25 11:23:44;;;;;;;52.05;32.80;;;;;;;-139.48;100.00;61774.03;5115420;28;20139;-63
2021/06/25 11:26:28;;;;;;;40.78;28.17;;;;;;;-139.48;100.00;61774.03;5100196;28;20457;-64
2021/06/25 11:29:12;;;;;;;64.88;37.78;;;;;;;-139.48;100.00;61774.03;5114871;28;20081;-63
2021/06/25 11:32:10;;;;;;;40.67;27.92;;;;;;;-139.48;100.00;61774.03;5114839;28;20061;-64
2021/06/25 11:34:55;;;;;;;42.40;27.48;;;;;;;-139.48;100.00;61774.03;5115072;28;20051;-63
2021/06/25 11:38:01;;;;;;;46.80;31.63;;;;;;;-139.48;100.00;61774.03;5115095;28;20068;-64
2021/06/25 11:40:49;;;;;;;51.97;32.30;;;;;;;-139.48;100.00;61774.03;5114779;28;20408;-64
2021/06/25 11:43:33;;;;;;;52.17;32.40;;;;;;;-139.48;100.00;61774.03;5099095;28;20527;-64
2021/06/25 11:46:18;;;;;;;47.75;31.92;;;;;;;-139.48;100.00;61774.03;5099443;28;20073;-64
2021/06/25 11:49:04;;;;;;;51.60;34.38;;;;;;;-139.48;100.00;61774.03;5099226;28;20050;-64
2021/06/25 11:51:48;;;;;;;54.33;35.47;;;;;;;-139.48;100.00;61774.03;5099052;28;20063;-64
2021/06/25 11:54:34;;;;;;;54.03;34.47;;;;;;;-139.48;100.00;61774.03;5114792;28;20088;-64
2021/06/25 11:57:26;;;;;;;43.63;29.88;;;;;;;-139.48;100.00;61774.03;5098972;28;20510;-65
2021/06/25 12:00:12;;;;;;;44.83;30.92;;;;;;;-139.48;100.00;61774.03;5099108;28;20050;-65
2021/06/25 12:02:59;;;;;;;43.17;30.75;;;;;;;-139.48;100.00;61774.03;5084482;28;20383;-65
2021/06/25 12:05:45;;;;;;;43.53;30.70;;;;;;;-139.48;100.00;61774.03;5114408;28;20046;-65
2021/06/25 12:08:29;;;;;;;36.90;24.73;;;;;;;-139.48;100.00;61774.03;5114565;28;20112;-65
2021/06/25 12:11:13;;;;;;;33.10;23.75;;;;;;;-139.48;100.00;61774.03;5114386;28;20076;-65
2021/06/25 12:14:06;;;;;;;34.50;25.38;;;;;;;-139.48;100.00;61774.03;5098728;28;20046;-65
2021/06/25 12:16:51;;;;;;;35.75;27.20;;;;;;;-139.48;100.00;61774.03;5099066;28;20549;-65
2021/06/25 12:19:35;;;;;;;38.20;26.73;;;;;;;-139.48;100.00;61774.03;5098888;28;20515;-65
2021/06/25 12:22:19;;;;;;;34.25;24.75;;;;;;;-139.48;100.00;61774.03;5114041;28;20519;-66
2021/06/25 12:25:03;;;;;;;35.83;23.60;;;;;;;-139.48;100.00;61774.03;5099006;28;20054;-64
2021/06/25 12:27:47;;;;;;;32.20;25.88;;;;;;;-139.48;100.00;61774.03;5098634;28;20078;-64
2021/06/25 12:30:31;;;;;;;34.33;26.40;;;;;;;-139.48;100.00;61774.03;5098377;28;20065;-65
2021/06/25 12:33:15;;;;;;;;;;;;;;;-139.48;100.00;61774.03;5084533;28;20046;-64